sensor_id;sensor_type;location;lat;lon;timestamp;pressure;altitude;pressure_sealevel;temperature;humidity
25722;BME280;13578;53.450;15.496;2023-01-25T00:02:37;101943.31;;;-1.14;100.00
25722;BME280;13578;53.450;15.496;2023-01-25T00:05:38;101944.28;;;-1.21;100.00
25722;BME280;13578;53.450;15.496;2023-01-25T00:08:38;101938.81;;;-1.14;100.00
25722;BME280;13578;53.450;15.496;2023-01-25T00:11:39;101936.13;;;-1.14;100.00
25722;BME280;13578;53.450;15.496;2023-01-25T00:14:39;101928.88;;;-1.08;100.00
25722;BME280;13578;53.450;15.496;2023-01-25T00:17:40;101927.06;;;-1.05;100.00
25722;BME280;13578;53.450;15.496;2023-01-25T00:20:41;101927.00;;;-0.99;100.00
25722;BME280;13578;53.450;15.496;2023-01-25T00:23:41;101932.44;;;-1.05;100.00
25722;BME280;13578;53.450;15.496;2023-01-25T00:26:42;101926.13;;;-0.96;100.00
25722;BME280;13578;53.450;15.496;2023-01-25T00:29:43;101934.16;;;-0.93;100.00
25722;BME280;13578;53.450;15.496;2023-01-25T00:32:52;101924.31;;;-0.99;100.00
25722;BME280;13578;53.450;15.496;2023-01-25T00:35:55;101912.81;;;-1.18;100.00
25722;BME280;13578;53.450;15.496;2023-01-25T00:38:56;101910.91;;;-1.09;100.00
25722;BME280;13578;53.450;15.496;2023-01-25T00:41:57;101908.28;;;-1.13;100.00
25722;BME280;13578;53.450;15.496;2023-01-25T00:44:58;101904.63;;;-1.08;100.00
25722;BME280;13578;53.450;15.496;2023-01-25T00:47:59;101904.56;;;-1.02;100.00
25722;BME280;13578;53.450;15.496;2023-01-25T00:51:00;101905.56;;;-1.13;100.00
25722;BME280;13578;53.450;15.496;2023-01-25T00:54:01;101904.63;;;-1.05;100.00
25722;BME280;13578;53.450;15.496;2023-01-25T00:57:01;101907.38;;;-1.12;100.00
25722;BME280;13578;53.450;15.496;2023-01-25T01:00:02;101904.72;;;-1.18;100.00
25722;BME280;13578;53.450;15.496;2023-01-25T01:03:03;101898.44;;;-1.20;100.00
25722;BME280;13578;53.450;15.496;2023-01-25T01:06:08;101883.03;;;-1.04;100.00
25722;BME280;13578;53.450;15.496;2023-01-25T01:09:17;101880.34;;;-1.04;100.00
25722;BME280;13578;53.450;15.496;2023-01-25T01:12:18;101876.91;;;-1.21;100.00
25722;BME280;13578;53.450;15.496;2023-01-25T01:15:19;101868.94;;;-1.38;100.00
25722;BME280;13578;53.450;15.496;2023-01-25T01:18:19;101874.28;;;-1.32;100.00
25722;BME280;13578;53.450;15.496;2023-01-25T01:21:20;101877.88;;;-1.29;100.00
25722;BME280;13578;53.450;15.496;2023-01-25T01:24:21;101865.25;;;-1.25;100.00
25722;BME280;13578;53.450;15.496;2023-01-25T01:27:21;101863.44;;;-1.24;100.00
25722;BME280;13578;53.450;15.496;2023-01-25T01:30:22;101868.75;;;-1.17;100.00
25722;BME280;13578;53.450;15.496;2023-01-25T01:33:23;101867.94;;;-1.23;100.00
25722;BME280;13578;53.450;15.496;2023-01-25T01:36:25;101868.81;;;-1.23;100.00
25722;BME280;13578;53.450;15.496;2023-01-25T01:39:26;101863.41;;;-1.20;100.00
25722;BME280;13578;53.450;15.496;2023-01-25T01:42:27;101861.63;;;-1.21;100.00
25722;BME280;13578;53.450;15.496;2023-01-25T01:48:48;101854.47;;;-1.26;100.00
25722;BME280;13578;53.450;15.496;2023-01-25T01:55:01;101848.16;;;-1.22;100.00
25722;BME280;13578;53.450;15.496;2023-01-25T01:58:03;101849.09;;;-1.26;100.00
25722;BME280;13578;53.450;15.496;2023-01-25T02:01:05;101853.50;;;-1.19;100.00
25722;BME280;13578;53.450;15.496;2023-01-25T02:04:07;101854.44;;;-1.22;100.00
25722;BME280;13578;53.450;15.496;2023-01-25T02:07:35;101849.94;;;-1.20;100.00
25722;BME280;13578;53.450;15.496;2023-01-25T02:10:37;101845.44;;;-1.18;100.00
25722;BME280;13578;53.450;15.496;2023-01-25T02:13:38;101843.59;;;-1.14;100.00
25722;BME280;13578;53.450;15.496;2023-01-25T02:16:40;101831.94;;;-1.19;100.00
25722;BME280;13578;53.450;15.496;2023-01-25T02:26:07;101822.06;;;-1.17;100.00
25722;BME280;13578;53.450;15.496;2023-01-25T02:29:08;101831.00;;;-1.12;100.00
25722;BME280;13578;53.450;15.496;2023-01-25T02:32:09;101817.63;;;-1.24;100.00
25722;BME280;13578;53.450;15.496;2023-01-25T02:35:40;101820.34;;;-1.26;100.00
25722;BME280;13578;53.450;15.496;2023-01-25T02:39:12;101811.38;;;-1.25;100.00
25722;BME280;13578;53.450;15.496;2023-01-25T02:42:09;101813.06;;;-1.16;100.00
25722;BME280;13578;53.450;15.496;2023-01-25T02:45:13;101809.47;;;-1.17;100.00
25722;BME280;13578;53.450;15.496;2023-01-25T02:48:15;101804.19;;;-1.29;100.00
25722;BME280;13578;53.450;15.496;2023-01-25T02:51:16;101791.63;;;-1.27;100.00
25722;BME280;13578;53.450;15.496;2023-01-25T02:54:18;101791.56;;;-1.21;100.00
25722;BME280;13578;53.450;15.496;2023-01-25T02:57:19;101797.06;;;-1.33;100.00
25722;BME280;13578;53.450;15.496;2023-01-25T03:00:20;101782.69;;;-1.34;100.00
25722;BME280;13578;53.450;15.496;2023-01-25T03:03:21;101782.69;;;-1.34;100.00
25722;BME280;13578;53.450;15.496;2023-01-25T03:06:21;101775.50;;;-1.33;100.00
25722;BME280;13578;53.450;15.496;2023-01-25T03:09:22;101780.91;;;-1.33;100.00
25722;BME280;13578;53.450;15.496;2023-01-25T03:12:22;101772.78;;;-1.29;100.00
25722;BME280;13578;53.450;15.496;2023-01-25T03:15:23;101765.59;;;-1.31;100.00
25722;BME280;13578;53.450;15.496;2023-01-25T03:18:24;101753.91;;;-1.30;100.00
25722;BME280;13578;53.450;15.496;2023-01-25T03:21:25;101749.50;;;-1.39;100.00
25722;BME280;13578;53.450;15.496;2023-01-25T03:24:25;101757.63;;;-1.44;100.00
25722;BME280;13578;53.450;15.496;2023-01-25T03:27:29;101753.06;;;-1.35;100.00
25722;BME280;13578;53.450;15.496;2023-01-25T03:30:29;101752.25;;;-1.44;100.00
25722;BME280;13578;53.450;15.496;2023-01-25T03:33:30;101747.75;;;-1.41;100.00
25722;BME280;13578;53.450;15.496;2023-01-25T03:36:30;101734.22;;;-1.38;100.00
25722;BME280;13578;53.450;15.496;2023-01-25T03:39:31;101741.41;;;-1.37;100.00
25722;BME280;13578;53.450;15.496;2023-01-25T03:42:32;101731.53;;;-1.37;100.00
25722;BME280;13578;53.450;15.496;2023-01-25T03:45:32;101719.94;;;-1.45;100.00
25722;BME280;13578;53.450;15.496;2023-01-25T03:48:33;101719.94;;;-1.47;100.00
25722;BME280;13578;53.450;15.496;2023-01-25T03:51:34;101718.16;;;-1.48;100.00
25722;BME280;13578;53.450;15.496;2023-01-25T03:54:35;101711.91;;;-1.50;100.00
25722;BME280;13578;53.450;15.496;2023-01-25T03:57:35;101713.69;;;-1.49;100.00
25722;BME280;13578;53.450;15.496;2023-01-25T04:00:36;101705.56;;;-1.46;100.00
25722;BME280;13578;53.450;15.496;2023-01-25T04:03:37;101691.19;;;-1.45;100.00
25722;BME280;13578;53.450;15.496;2023-01-25T04:06:38;101696.63;;;-1.48;100.00
25722;BME280;13578;53.450;15.496;2023-01-25T04:09:38;101683.16;;;-1.49;100.00
25722;BME280;13578;53.450;15.496;2023-01-25T04:12:39;101675.97;;;-1.49;100.00
25722;BME280;13578;53.450;15.496;2023-01-25T04:15:39;101674.16;;;-1.45;100.00
25722;BME280;13578;53.450;15.496;2023-01-25T04:18:40;101681.28;;;-1.41;100.00
25722;BME280;13578;53.450;15.496;2023-01-25T04:21:41;101669.69;;;-1.48;100.00
25722;BME280;13578;53.450;15.496;2023-01-25T04:24:42;101655.47;;;-1.62;100.00
25722;BME280;13578;53.450;15.496;2023-01-25T04:27:42;101654.44;;;-1.50;100.00
25722;BME280;13578;53.450;15.496;2023-01-25T04:30:44;101650.88;;;-1.52;100.00
25722;BME280;13578;53.450;15.496;2023-01-25T04:33:44;101648.03;;;-1.40;100.00
25722;BME280;13578;53.450;15.496;2023-01-25T04:36:45;101646.28;;;-1.46;100.00
25722;BME280;13578;53.450;15.496;2023-01-25T04:39:45;101642.59;;;-1.35;100.00
25722;BME280;13578;53.450;15.496;2023-01-25T04:42:46;101637.28;;;-1.41;100.00
25722;BME280;13578;53.450;15.496;2023-01-25T04:45:47;101629.19;;;-1.40;100.00
25722;BME280;13578;53.450;15.496;2023-01-25T04:48:47;101632.75;;;-1.38;100.00
25722;BME280;13578;53.450;15.496;2023-01-25T04:51:48;101636.28;;;-1.33;100.00
25722;BME280;13578;53.450;15.496;2023-01-25T04:54:48;101623.72;;;-1.32;100.00
25722;BME280;13578;53.450;15.496;2023-01-25T04:57:49;101628.06;;;-1.20;100.00
25722;BME280;13578;53.450;15.496;2023-01-25T05:00:50;101622.75;;;-1.28;100.00
25722;BME280;13578;53.450;15.496;2023-01-25T05:03:51;101620.91;;;-1.21;100.00
25722;BME280;13578;53.450;15.496;2023-01-25T05:06:51;101620.13;;;-1.33;100.00
25722;BME280;13578;53.450;15.496;2023-01-25T05:09:52;101610.19;;;-1.29;100.00
25722;BME280;13578;53.450;15.496;2023-01-25T05:12:52;101616.50;;;-1.30;100.00
25722;BME280;13578;53.450;15.496;2023-01-25T05:15:55;101618.28;;;-1.29;100.00
25722;BME280;13578;53.450;15.496;2023-01-25T05:18:56;101619.25;;;-1.35;100.00
25722;BME280;13578;53.450;15.496;2023-01-25T05:21:56;101614.81;;;-1.39;100.00
25722;BME280;13578;53.450;15.496;2023-01-25T05:24:57;101622.00;;;-1.41;100.00
25722;BME280;13578;53.450;15.496;2023-01-25T05:27:58;101613.06;;;-1.45;100.00
25722;BME280;13578;53.450;15.496;2023-01-25T05:31:02;101611.28;;;-1.46;100.00
25722;BME280;13578;53.450;15.496;2023-01-25T05:34:03;101603.19;;;-1.46;100.00
25722;BME280;13578;53.450;15.496;2023-01-25T05:37:05;101597.88;;;-1.49;100.00
25722;BME280;13578;53.450;15.496;2023-01-25T05:40:07;101596.00;;;-1.44;100.00
25722;BME280;13578;53.450;15.496;2023-01-25T05:43:08;101600.41;;;-1.36;100.00
25722;BME280;13578;53.450;15.496;2023-01-25T05:46:09;101605.75;;;-1.32;100.00
25722;BME280;13578;53.450;15.496;2023-01-25T05:49:10;101588.81;;;-1.41;100.00
25722;BME280;13578;53.450;15.496;2023-01-25T05:52:14;101589.72;;;-1.46;100.00
25722;BME280;13578;53.450;15.496;2023-01-25T05:55:15;101582.63;;;-1.50;100.00
25722;BME280;13578;53.450;15.496;2023-01-25T05:58:16;101580.78;;;-1.49;100.00
25722;BME280;13578;53.450;15.496;2023-01-25T06:01:17;101588.81;;;-1.41;100.00
25722;BME280;13578;53.450;15.496;2023-01-25T06:04:17;101587.91;;;-1.40;100.00
25722;BME280;13578;53.450;15.496;2023-01-25T06:07:18;101580.72;;;-1.43;100.00
25722;BME280;13578;53.450;15.496;2023-01-25T06:10:18;101576.19;;;-1.39;100.00
25722;BME280;13578;53.450;15.496;2023-01-25T06:13:19;101586.00;;;-1.32;100.00
25722;BME280;13578;53.450;15.496;2023-01-25T06:16:21;101586.94;;;-1.36;100.00
25722;BME280;13578;53.450;15.496;2023-01-25T06:19:22;101582.41;;;-1.33;100.00
25722;BME280;13578;53.450;15.496;2023-01-25T06:22:22;101588.69;;;-1.32;100.00
25722;BME280;13578;53.450;15.496;2023-01-25T06:25:23;101594.13;;;-1.35;100.00
25722;BME280;13578;53.450;15.496;2023-01-25T06:28:23;101583.31;;;-1.32;100.00
25722;BME280;13578;53.450;15.496;2023-01-25T06:31:24;101586.09;;;-1.40;100.00
25722;BME280;13578;53.450;15.496;2023-01-25T06:34:25;101583.38;;;-1.40;100.00
25722;BME280;13578;53.450;15.496;2023-01-25T06:37:25;101581.56;;;-1.39;100.00
25722;BME280;13578;53.450;15.496;2023-01-25T06:40:27;101580.50;;;-1.24;100.00
25722;BME280;13578;53.450;15.496;2023-01-25T06:43:29;101585.06;;;-1.31;100.00
25722;BME280;13578;53.450;15.496;2023-01-25T06:46:33;101576.13;;;-1.33;100.00
25722;BME280;13578;53.450;15.496;2023-01-25T06:49:34;101577.00;;;-1.30;100.00
25722;BME280;13578;53.450;15.496;2023-01-25T06:52:35;101569.81;;;-1.31;100.00
25722;BME280;13578;53.450;15.496;2023-01-25T06:55:35;101566.19;;;-1.28;100.00
25722;BME280;13578;53.450;15.496;2023-01-25T06:58:36;101561.78;;;-1.35;100.00
25722;BME280;13578;53.450;15.496;2023-01-25T07:01:37;101555.59;;;-1.44;100.00
25722;BME280;13578;53.450;15.496;2023-01-25T07:04:38;101555.50;;;-1.34;100.00
25722;BME280;13578;53.450;15.496;2023-01-25T07:07:38;101566.16;;;-1.25;100.00
25722;BME280;13578;53.450;15.496;2023-01-25T07:10:39;101557.13;;;-1.22;100.00
25722;BME280;13578;53.450;15.496;2023-01-25T07:13:44;101550.84;;;-1.23;100.00
25722;BME280;13578;53.450;15.496;2023-01-25T07:16:48;101542.78;;;-1.24;100.00
25722;BME280;13578;53.450;15.496;2023-01-25T07:19:48;101544.53;;;-1.22;100.00
25722;BME280;13578;53.450;15.496;2023-01-25T07:22:49;101545.59;;;-1.32;100.00
25722;BME280;13578;53.450;15.496;2023-01-25T07:25:49;101535.63;;;-1.27;100.00
25722;BME280;13578;53.450;15.496;2023-01-25T07:28:51;101530.19;;;-1.22;100.00
25722;BME280;13578;53.450;15.496;2023-01-25T07:31:53;101533.81;;;-1.25;100.00
25722;BME280;13578;53.450;15.496;2023-01-25T07:34:54;101530.22;;;-1.25;100.00
25722;BME280;13578;53.450;15.496;2023-01-25T07:37:54;101531.03;;;-1.19;100.00
25722;BME280;13578;53.450;15.496;2023-01-25T07:40:55;101535.63;;;-1.27;100.00
25722;BME280;13578;53.450;15.496;2023-01-25T07:43:56;101526.66;;;-1.28;100.00
25722;BME280;13578;53.450;15.496;2023-01-25T07:46:56;101533.81;;;-1.26;100.00
25722;BME280;13578;53.450;15.496;2023-01-25T07:49:57;101535.59;;;-1.22;100.00
25722;BME280;13578;53.450;15.496;2023-01-25T07:52:57;101533.81;;;-1.26;100.00
25722;BME280;13578;53.450;15.496;2023-01-25T07:55:58;101527.28;;;-1.08;100.00
25722;BME280;13578;53.450;15.496;2023-01-25T07:59:00;101530.13;;;-1.18;100.00
25722;BME280;13578;53.450;15.496;2023-01-25T08:02:02;101530.97;;;-1.13;100.00
25722;BME280;13578;53.450;15.496;2023-01-25T08:05:03;101530.88;;;-1.09;100.00
25722;BME280;13578;53.450;15.496;2023-01-25T08:08:05;101523.94;;;-1.24;100.00
25722;BME280;13578;53.450;15.496;2023-01-25T08:14:12;101511.28;;;-1.18;100.00
25722;BME280;13578;53.450;15.496;2023-01-25T08:17:13;101508.47;;;-1.13;100.00
25722;BME280;13578;53.450;15.496;2023-01-25T08:20:13;101508.47;;;-1.13;100.00
25722;BME280;13578;53.450;15.496;2023-01-25T08:23:14;101514.84;;;-1.17;100.00
25722;BME280;13578;53.450;15.496;2023-01-25T08:26:15;101505.03;;;-1.21;100.00
25722;BME280;13578;53.450;15.496;2023-01-25T08:29:18;101500.34;;;-1.07;100.00
25722;BME280;13578;53.450;15.496;2023-01-25T08:32:19;101499.44;;;-1.07;100.00
25722;BME280;13578;53.450;15.496;2023-01-25T08:35:19;101494.91;;;-1.05;100.00
25722;BME280;13578;53.450;15.496;2023-01-25T08:38:20;101493.16;;;-1.08;100.00
25722;BME280;13578;53.450;15.496;2023-01-25T08:41:21;101486.94;;;-1.12;100.00
25722;BME280;13578;53.450;15.496;2023-01-25T08:44:22;101484.22;;;-1.13;100.00
25722;BME280;13578;53.450;15.496;2023-01-25T08:47:25;101492.34;;;-1.15;100.00
25722;BME280;13578;53.450;15.496;2023-01-25T08:50:26;101487.72;;;-1.03;100.00
25722;BME280;13578;53.450;15.496;2023-01-25T08:53:28;101487.78;;;-1.08;100.00
25722;BME280;13578;53.450;15.496;2023-01-25T08:56:29;101494.91;;;-1.05;100.00
25722;BME280;13578;53.450;15.496;2023-01-25T08:59:29;101485.84;;;-1.01;100.00
25722;BME280;13578;53.450;15.496;2023-01-25T09:02:30;101484.03;;;-0.99;100.00
25722;BME280;13578;53.450;15.496;2023-01-25T09:05:35;101485.06;;;-1.08;100.00
25722;BME280;13578;53.450;15.496;2023-01-25T09:08:36;101495.88;;;-1.11;100.00
25722;BME280;13578;53.450;15.496;2023-01-25T09:11:37;101493.19;;;-1.11;100.00
25722;BME280;13578;53.450;15.496;2023-01-25T09:14:39;101481.41;;;-1.04;100.00
25722;BME280;13578;53.450;15.496;2023-01-25T09:17:40;101484.00;;;-0.96;100.00
25722;BME280;13578;53.450;15.496;2023-01-25T09:20:40;101478.56;;;-0.94;100.00
25722;BME280;13578;53.450;15.496;2023-01-25T09:23:42;101478.44;;;-0.87;100.00
25722;BME280;13578;53.450;15.496;2023-01-25T09:26:47;101467.00;;;-1.00;100.00
25722;BME280;13578;53.450;15.496;2023-01-25T09:29:48;101480.28;;;-0.90;100.00
25722;BME280;13578;53.450;15.496;2023-01-25T09:32:49;101460.34;;;-0.78;100.00
25722;BME280;13578;53.450;15.496;2023-01-25T09:35:50;101466.00;;;-0.96;100.00
25722;BME280;13578;53.450;15.496;2023-01-25T09:38:51;101467.00;;;-1.01;100.00
25722;BME280;13578;53.450;15.496;2023-01-25T09:42:15;101465.09;;;-0.94;100.00
25722;BME280;13578;53.450;15.496;2023-01-25T09:45:29;101467.78;;;-0.94;100.00
25722;BME280;13578;53.450;15.496;2023-01-25T09:48:40;101469.50;;;-0.90;100.00
25722;BME280;13578;53.450;15.496;2023-01-25T09:52:26;101457.72;;;-0.83;100.00
25722;BME280;13578;53.450;15.496;2023-01-25T09:55:29;101449.63;;;-0.82;100.00
25722;BME280;13578;53.450;15.496;2023-01-25T09:58:34;101458.44;;;-0.73;100.00
25722;BME280;13578;53.450;15.496;2023-01-25T10:02:38;101439.75;;;-0.83;100.00
25722;BME280;13578;53.450;15.496;2023-01-25T10:05:43;101431.41;;;-0.67;100.00
25722;BME280;13578;53.450;15.496;2023-01-25T10:09:04;101433.25;;;-0.72;100.00
25722;BME280;13578;53.450;15.496;2023-01-25T10:12:14;101432.50;;;-0.79;100.00
25722;BME280;13578;53.450;15.496;2023-01-25T10:15:23;101418.09;;;-0.78;100.00
25722;BME280;13578;53.450;15.496;2023-01-25T10:22:21;101400.00;;;-0.71;100.00
25722;BME280;13578;53.450;15.496;2023-01-25T10:25:30;101397.25;;;-0.70;100.00
25722;BME280;13578;53.450;15.496;2023-01-25T10:28:51;101396.41;;;-0.72;100.00
25722;BME280;13578;53.450;15.496;2023-01-25T10:32:19;101397.41;;;-0.77;100.00
25722;BME280;13578;53.450;15.496;2023-01-25T10:35:28;101388.28;;;-0.70;100.00
25722;BME280;13578;53.450;15.496;2023-01-25T10:38:38;101385.75;;;-0.80;100.00
25722;BME280;13578;53.450;15.496;2023-01-25T10:41:45;101377.63;;;-0.76;100.00
25722;BME280;13578;53.450;15.496;2023-01-25T10:44:48;101374.78;;;-0.67;100.00
25722;BME280;13578;53.450;15.496;2023-01-25T10:47:53;101359.50;;;-0.68;100.00
25722;BME280;13578;53.450;15.496;2023-01-25T10:50:56;101355.66;;;-0.55;100.00
25722;BME280;13578;53.450;15.496;2023-01-25T10:54:02;101355.69;;;-0.58;100.00
25722;BME280;13578;53.450;15.496;2023-01-25T10:57:04;101355.66;;;-0.55;100.00
25722;BME280;13578;53.450;15.496;2023-01-25T11:00:06;101358.50;;;-0.62;100.00
25722;BME280;13578;53.450;15.496;2023-01-25T11:03:20;101348.44;;;-0.54;100.00
25722;BME280;13578;53.450;15.496;2023-01-25T11:06:32;101338.50;;;-0.52;100.00
25722;BME280;13578;53.450;15.496;2023-01-25T11:09:36;101334.03;;;-0.52;100.00
25722;BME280;13578;53.450;15.496;2023-01-25T11:12:37;101333.19;;;-0.55;100.00
25722;BME280;13578;53.450;15.496;2023-01-25T11:15:38;101326.91;;;-0.56;100.00
25722;BME280;13578;53.450;15.496;2023-01-25T11:18:52;101331.94;;;-0.37;100.00
25722;BME280;13578;53.450;15.496;2023-01-25T11:21:54;101322.97;;;-0.39;100.00
25722;BME280;13578;53.450;15.496;2023-01-25T11:24:57;101320.94;;;-0.28;100.00
25722;BME280;13578;53.450;15.496;2023-01-25T11:28:23;101317.31;;;-0.27;100.00
25722;BME280;13578;53.450;15.496;2023-01-25T11:31:24;101320.94;;;-0.28;100.00
25722;BME280;13578;53.450;15.496;2023-01-25T11:34:27;101314.59;;;-0.25;100.00
25722;BME280;13578;53.450;15.496;2023-01-25T11:37:38;101307.50;;;-0.29;100.00
25722;BME280;13578;53.450;15.496;2023-01-25T11:40:48;101301.13;;;-0.27;100.00
25722;BME280;13578;53.450;15.496;2023-01-25T11:44:27;101297.50;;;-0.26;100.00
25722;BME280;13578;53.450;15.496;2023-01-25T11:48:08;101286.91;;;-0.35;100.00
25722;BME280;13578;53.450;15.496;2023-01-25T12:11:08;101238.81;;;-0.57;100.00
25722;BME280;13578;53.450;15.496;2023-01-25T12:17:31;101236.09;;;-0.57;100.00
25722;BME280;13578;53.450;15.496;2023-01-25T12:21:05;101220.75;;;-0.52;100.00
25722;BME280;13578;53.450;15.496;2023-01-25T12:31:00;101211.69;;;-0.51;100.00
25722;BME280;13578;53.450;15.496;2023-01-25T12:34:09;101197.53;;;-0.60;100.00
25722;BME280;13578;53.450;15.496;2023-01-25T12:37:23;101185.78;;;-0.58;100.00
25722;BME280;13578;53.450;15.496;2023-01-25T12:47:31;101180.94;;;-0.42;100.00
25722;BME280;13578;53.450;15.496;2023-01-25T12:50:41;101163.28;;;-0.57;100.00
25722;BME280;13578;53.450;15.496;2023-01-25T12:53:46;101160.19;;;-0.40;100.00
25722;BME280;13578;53.450;15.496;2023-01-25T12:56:56;101167.47;;;-0.43;100.00
25722;BME280;13578;53.450;15.496;2023-01-25T13:00:19;101160.91;;;-0.30;100.00
25722;BME280;13578;53.450;15.496;2023-01-25T13:12:57;101138.88;;;-0.51;100.00
25722;BME280;13578;53.450;15.496;2023-01-25T13:25:45;101130.88;;;-0.54;100.00
25722;BME280;13578;53.450;15.496;2023-01-25T13:28:49;101130.91;;;-0.55;100.00
25722;BME280;13578;53.450;15.496;2023-01-25T13:31:50;101126.38;;;-0.55;100.00
25722;BME280;13578;53.450;15.496;2023-01-25T13:37:58;101116.31;;;-0.46;100.00
25722;BME280;13578;53.450;15.496;2023-01-25T13:41:15;101111.84;;;-0.47;100.00
25722;BME280;13578;53.450;15.496;2023-01-25T13:44:28;101112.59;;;-0.42;100.00
25722;BME280;13578;53.450;15.496;2023-01-25T13:47:32;101107.16;;;-0.39;100.00
25722;BME280;13578;53.450;15.496;2023-01-25T13:50:42;101101.75;;;-0.39;100.00
25722;BME280;13578;53.450;15.496;2023-01-25T13:53:55;101094.53;;;-0.39;100.00
25722;BME280;13578;53.450;15.496;2023-01-25T13:57:11;101077.47;;;-0.39;100.00
25722;BME280;13578;53.450;15.496;2023-01-25T14:00:14;101070.25;;;-0.37;100.00
25722;BME280;13578;53.450;15.496;2023-01-25T14:03:15;101061.44;;;-0.45;100.00
25722;BME280;13578;53.450;15.496;2023-01-25T14:06:24;101056.88;;;-0.43;100.00
25722;BME280;13578;53.450;15.496;2023-01-25T14:09:25;101051.78;;;-0.56;100.00
25722;BME280;13578;53.450;15.496;2023-01-25T14:12:41;101064.41;;;-0.56;100.00
25722;BME280;13578;53.450;15.496;2023-01-25T14:15:57;101053.75;;;-0.62;100.00
25722;BME280;13578;53.450;15.496;2023-01-25T14:19:27;101047.34;;;-0.58;100.00
25722;BME280;13578;53.450;15.496;2023-01-25T14:22:32;101042.72;;;-0.52;100.00
25722;BME280;13578;53.450;15.496;2023-01-25T14:25:33;101044.34;;;-0.46;100.00
25722;BME280;13578;53.450;15.496;2023-01-25T14:28:33;101032.78;;;-0.51;100.00
25722;BME280;13578;53.450;15.496;2023-01-25T14:31:35;101025.78;;;-0.58;100.00
25722;BME280;13578;53.450;15.496;2023-01-25T14:34:36;101028.16;;;-0.44;100.00
25722;BME280;13578;53.450;15.496;2023-01-25T14:37:41;101016.78;;;-0.57;100.00
25722;BME280;13578;53.450;15.496;2023-01-25T14:40:41;101020.44;;;-0.61;100.00
25722;BME280;13578;53.450;15.496;2023-01-25T14:43:45;101018.00;;;-0.72;100.00
25722;BME280;13578;53.450;15.496;2023-01-25T14:46:47;101010.63;;;-0.64;100.00
25722;BME280;13578;53.450;15.496;2023-01-25T14:49:47;101002.81;;;-0.75;100.00
25722;BME280;13578;53.450;15.496;2023-01-25T14:52:48;100992.00;;;-0.75;100.00
25722;BME280;13578;53.450;15.496;2023-01-25T14:55:49;100987.44;;;-0.71;100.00
25722;BME280;13578;53.450;15.496;2023-01-25T14:58:51;100985.53;;;-0.68;100.00
25722;BME280;13578;53.450;15.496;2023-01-25T15:01:53;100976.69;;;-0.73;100.00
25722;BME280;13578;53.450;15.496;2023-01-25T15:11:26;100952.59;;;-0.81;100.00
25722;BME280;13578;53.450;15.496;2023-01-25T15:14:53;100946.13;;;-0.73;100.00
25722;BME280;13578;53.450;15.496;2023-01-25T15:17:58;100947.03;;;-0.73;100.00
25722;BME280;13578;53.450;15.496;2023-01-25T15:20:59;100940.84;;;-0.76;100.00
25722;BME280;13578;53.450;15.496;2023-01-25T15:24:02;100942.56;;;-0.74;100.00
25722;BME280;13578;53.450;15.496;2023-01-25T15:27:08;100943.47;;;-0.75;100.00
25722;BME280;13578;53.450;15.496;2023-01-25T15:30:13;100950.06;;;-0.87;100.00
25722;BME280;13578;53.450;15.496;2023-01-25T15:33:27;100945.47;;;-0.83;100.00
25722;BME280;13578;53.450;15.496;2023-01-25T15:36:30;100939.13;;;-0.81;100.00
25722;BME280;13578;53.450;15.496;2023-01-25T15:39:31;100934.69;;;-0.82;100.00
25722;BME280;13578;53.450;15.496;2023-01-25T15:42:32;100937.06;;;-0.69;100.00
25722;BME280;13578;53.450;15.496;2023-01-25T15:45:32;100926.50;;;-0.78;100.00
25722;BME280;13578;53.450;15.496;2023-01-25T15:48:35;100933.66;;;-0.77;100.00
25722;BME280;13578;53.450;15.496;2023-01-25T15:51:37;100921.19;;;-0.82;100.00
25722;BME280;13578;53.450;15.496;2023-01-25T15:54:37;100916.63;;;-0.78;100.00
25722;BME280;13578;53.450;15.496;2023-01-25T15:57:38;100930.13;;;-0.80;100.00
25722;BME280;13578;53.450;15.496;2023-01-25T16:00:40;100922.59;;;-0.67;100.00
25722;BME280;13578;53.450;15.496;2023-01-25T16:03:41;100925.16;;;-0.60;100.00
25722;BME280;13578;53.450;15.496;2023-01-25T16:06:48;100922.44;;;-0.59;100.00
25722;BME280;13578;53.450;15.496;2023-01-25T16:09:49;100909.28;;;-0.73;100.00
25722;BME280;13578;53.450;15.496;2023-01-25T16:12:50;100911.09;;;-0.73;100.00
25722;BME280;13578;53.450;15.496;2023-01-25T16:15:52;100915.31;;;-0.63;100.00
25722;BME280;13578;53.450;15.496;2023-01-25T16:18:55;100908.47;;;-0.76;100.00
25722;BME280;13578;53.450;15.496;2023-01-25T16:21:55;100908.38;;;-0.73;100.00
25722;BME280;13578;53.450;15.496;2023-01-25T16:24:56;100912.97;;;-0.75;100.00
25722;BME280;13578;53.450;15.496;2023-01-25T16:27:57;100905.03;;;-0.82;100.00
25722;BME280;13578;53.450;15.496;2023-01-25T16:30:57;100904.28;;;-0.88;100.00
25722;BME280;13578;53.450;15.496;2023-01-25T16:33:59;100905.16;;;-0.88;100.00
25722;BME280;13578;53.450;15.496;2023-01-25T16:37:00;100912.31;;;-0.87;100.00
25722;BME280;13578;53.450;15.496;2023-01-25T16:40:01;100902.47;;;-0.88;100.00
25722;BME280;13578;53.450;15.496;2023-01-25T16:43:02;100895.91;;;-0.77;100.00
25722;BME280;13578;53.450;15.496;2023-01-25T16:46:03;100892.47;;;-0.83;100.00
25722;BME280;13578;53.450;15.496;2023-01-25T16:49:04;100881.75;;;-0.86;100.00
25722;BME280;13578;53.450;15.496;2023-01-25T16:52:10;100880.88;;;-0.86;100.00
25722;BME280;13578;53.450;15.496;2023-01-25T16:55:12;100869.88;;;-0.78;100.00
25722;BME280;13578;53.450;15.496;2023-01-25T16:58:13;100867.22;;;-0.80;100.00
25722;BME280;13578;53.450;15.496;2023-01-25T17:01:15;100866.44;;;-0.84;100.00
25722;BME280;13578;53.450;15.496;2023-01-25T17:04:18;100858.28;;;-0.82;100.00